Time;durP1;ratioP1;P1;durP2;ratioP2;P2;SDS_P1;SDS_P2;PMS_P1;PMS_P2;Temp;Humidity;BMP_temperature;BMP_pressure;BME280_temperature;BME280_humidity;BME280_pressure;Samples;Min_cycle;Max_cycle;Signal;HPM_P1;HPM_P2
2023/09/03 00:01:11;;;;;;;2.50;1.70;;;15.10;99.90;;;;;;5027461;28;20041;-80
2023/09/03 00:03:38;;;;;;;2.40;1.70;;;15.00;99.90;;;;;;5006761;28;20042;-78
2023/09/03 00:06:04;;;;;;;2.25;1.90;;;15.10;99.90;;;;;;4996029;28;20053;-78
2023/09/03 00:08:31;;;;;;;2.92;1.67;;;15.00;99.90;;;;;;5010982;28;20034;-80
2023/09/03 00:10:57;;;;;;;3.35;1.98;;;15.00;99.90;;;;;;5026469;28;20034;-83
2023/09/03 00:13:24;;;;;;;2.55;2.30;;;15.10;99.90;;;;;;4994749;28;20052;-79
2023/09/03 00:15:50;;;;;;;3.80;3.28;;;15.00;99.90;;;;;;4995054;28;20045;-78
2023/09/03 00:18:17;;;;;;;3.33;2.85;;;15.00;99.90;;;;;;4996179;28;20037;-80
2023/09/03 00:20:56;;;;;;;4.15;3.65;;;15.00;99.90;;;;;;5011021;28;20030;-75
2023/09/03 00:23:23;;;;;;;9.48;7.28;;;14.90;99.90;;;;;;5012172;28;20044;-79
2023/09/03 00:25:50;;;;;;;10.43;8.20;;;14.90;99.90;;;;;;4978722;28;20076;-79
2023/09/03 00:28:16;;;;;;;12.98;9.20;;;14.90;99.90;;;;;;4978576;28;20038;-75
2023/09/03 00:30:42;;;;;;;12.20;7.28;;;14.80;99.90;;;;;;4978180;28;20033;-80
2023/09/03 00:33:09;;;;;;;12.45;8.32;;;14.80;99.90;;;;;;4995063;28;20038;-81
2023/09/03 00:35:35;;;;;;;8.10;6.22;;;14.80;99.90;;;;;;5027882;28;20034;-80
2023/09/03 00:38:02;;;;;;;6.78;5.05;;;14.80;99.90;;;;;;5010724;28;20480;-80
2023/09/03 00:40:28;;;;;;;7.10;4.97;;;14.70;99.90;;;;;;4993898;28;20034;-76
2023/09/03 00:42:55;;;;;;;5.53;3.78;;;14.70;99.90;;;;;;5012642;28;20030;-80
2023/09/03 00:45:21;;;;;;;6.60;5.05;;;14.70;99.90;;;;;;4995383;28;20045;-79
2023/09/03 00:47:48;;;;;;;6.43;5.22;;;14.70;99.90;;;;;;4979135;28;20042;-78
2023/09/03 00:50:14;;;;;;;5.95;4.70;;;14.70;99.90;;;;;;4995145;28;20034;-80
2023/09/03 00:52:41;;;;;;;4.13;3.70;;;14.70;99.90;;;;;;5010132;28;20049;-78
2023/09/03 00:55:08;;;;;;;4.15;3.20;;;14.70;99.90;;;;;;4995554;28;20053;-79
2023/09/03 00:57:35;;;;;;;3.05;2.47;;;14.70;99.90;;;;;;5011744;28;20026;-80
2023/09/03 01:00:01;;;;;;;3.30;2.70;;;14.70;99.90;;;;;;4978806;28;20037;-77
2023/09/03 01:02:29;;;;;;;2.40;1.92;;;14.70;99.90;;;;;;4994333;28;20053;-77
2023/09/03 01:04:56;;;;;;;3.63;2.55;;;14.60;99.90;;;;;;4998067;28;20401;-79
2023/09/03 01:07:24;;;;;;;3.22;2.90;;;14.60;99.90;;;;;;4994515;28;20034;-79
2023/09/03 01:09:51;;;;;;;3.30;2.60;;;14.60;99.90;;;;;;4995725;28;20370;-80
2023/09/03 01:12:35;;;;;;;3.10;2.80;;;14.60;99.90;;;;;;4994103;28;20053;-80
2023/09/03 01:15:17;;;;;;;3.67;2.65;;;14.60;99.90;;;;;;5013134;28;20030;-81
2023/09/03 01:17:52;;;;;;;2.85;2.47;;;14.60;99.90;;;;;;5030491;28;20033;-81
2023/09/03 01:20:26;;;;;;;3.08;2.50;;;14.60;99.90;;;;;;4995849;28;20056;-77
2023/09/03 01:23:30;;;;;;;2.90;2.15;;;14.60;99.90;;;;;;4980822;28;20060;-78
2023/09/03 01:26:11;;;;;;;6.80;2.60;;;14.60;99.90;;;;;;5012461;28;20029;-76
2023/09/03 01:28:40;;;;;;;3.13;2.70;;;14.60;99.90;;;;;;4997975;28;20033;-77
2023/09/03 01:31:13;;;;;;;3.40;2.60;;;14.50;99.90;;;;;;4997418;28;20029;-80
2023/09/03 01:33:45;;;;;;;3.17;2.33;;;14.50;99.90;;;;;;4997060;28;20038;-78
2023/09/03 01:36:14;;;;;;;4.32;2.30;;;14.50;99.90;;;;;;4995961;28;20044;-75
2023/09/03 01:38:40;;;;;;;2.80;2.17;;;14.50;99.90;;;;;;4997240;28;20041;-79
2023/09/03 01:41:09;;;;;;;3.67;3.00;;;14.60;99.90;;;;;;4981018;28;20034;-75
2023/09/03 01:43:36;;;;;;;3.70;2.60;;;14.50;99.90;;;;;;4997704;28;20041;-78
2023/09/03 01:46:12;;;;;;;4.45;3.90;;;14.50;99.90;;;;;;4981407;28;20392;-79
2023/09/03 01:49:15;;;;;;;3.67;3.28;;;14.50;99.90;;;;;;5026313;28;20030;-78
2023/09/03 01:52:00;;;;;;;4.93;3.33;;;14.50;99.90;;;;;;4999670;28;20036;-79
2023/09/03 01:54:46;;;;;;;3.50;2.95;;;14.50;99.90;;;;;;5014406;28;20042;-79
2023/09/03 01:57:33;;;;;;;3.33;2.53;;;14.50;99.90;;;;;;5031723;28;20524;-79
2023/09/03 02:00:07;;;;;;;3.50;2.53;;;14.50;99.90;;;;;;5027618;28;20033;-78
2023/09/03 02:02:44;;;;;;;3.00;2.30;;;14.50;99.90;;;;;;4998018;28;20030;-80
2023/09/03 02:05:13;;;;;;;2.58;2.22;;;14.50;99.90;;;;;;4996913;28;20125;-79
2023/09/03 02:07:41;;;;;;;2.92;2.45;;;14.50;99.90;;;;;;5028687;28;20045;-78
2023/09/03 02:10:07;;;;;;;2.95;2.47;;;14.50;99.90;;;;;;4996275;28;20037;-80
2023/09/03 02:12:34;;;;;;;5.30;3.22;;;14.50;99.90;;;;;;4980392;28;20034;-78
2023/09/03 02:15:00;;;;;;;5.03;2.95;;;14.50;99.90;;;;;;5013333;28;20045;-74
2023/09/03 02:17:27;;;;;;;3.72;3.40;;;14.50;99.90;;;;;;4997432;28;20033;-80
2023/09/03 02:19:54;;;;;;;4.45;3.40;;;14.50;99.90;;;;;;4998950;28;20034;-79
2023/09/03 02:22:20;;;;;;;4.97;3.22;;;14.50;99.90;;;;;;4997665;28;20038;-78
2023/09/03 02:24:49;;;;;;;5.05;3.83;;;14.50;99.90;;;;;;4999577;28;20065;-75
2023/09/03 02:27:16;;;;;;;6.18;4.85;;;14.50;99.90;;;;;;4996785;28;20064;-77
2023/09/03 02:29:42;;;;;;;4.47;4.07;;;14.50;99.90;;;;;;4997117;28;20042;-79
2023/09/03 02:32:08;;;;;;;5.05;4.55;;;14.50;99.90;;;;;;5013022;28;20045;-74
2023/09/03 02:34:35;;;;;;;5.18;4.53;;;14.50;99.90;;;;;;4982629;28;20041;-80
2023/09/03 02:37:03;;;;;;;4.90;4.40;;;14.50;99.90;;;;;;5014297;28;20034;-78
2023/09/03 02:39:30;;;;;;;4.35;3.95;;;14.50;99.90;;;;;;4996951;28;20037;-76
2023/09/03 02:41:57;;;;;;;4.68;4.28;;;14.50;99.90;;;;;;4997378;28;20034;-77
2023/09/03 02:44:23;;;;;;;3.80;3.42;;;14.50;99.90;;;;;;5013517;28;20053;-79
2023/09/03 02:46:50;;;;;;;3.75;3.42;;;14.50;99.90;;;;;;5013536;28;20037;-78
2023/09/03 02:49:16;;;;;;;4.03;3.38;;;14.40;99.90;;;;;;5012212;28;20330;-75
2023/09/03 02:51:43;;;;;;;3.55;3.25;;;14.40;99.90;;;;;;4999810;28;20057;-79
2023/09/03 02:54:10;;;;;;;4.50;4.10;;;14.40;99.90;;;;;;5012507;28;20033;-79
2023/09/03 02:56:36;;;;;;;4.18;3.78;;;14.40;99.90;;;;;;5029080;28;20489;-79
2023/09/03 02:59:03;;;;;;;3.80;3.40;;;14.40;99.90;;;;;;5010397;28;20052;-75
2023/09/03 03:01:30;;;;;;;4.00;3.38;;;14.40;99.90;;;;;;4996839;28;20038;-79
2023/09/03 03:03:56;;;;;;;4.72;3.83;;;14.40;99.90;;;;;;4978945;28;20440;-79
2023/09/03 03:06:23;;;;;;;4.20;3.65;;;14.40;99.90;;;;;;4980631;28;20038;-78
2023/09/03 03:08:50;;;;;;;3.42;3.00;;;14.30;99.90;;;;;;5028037;28;20042;-78
2023/09/03 03:11:17;;;;;;;7.30;3.83;;;14.30;99.90;;;;;;5012365;28;20551;-78
2023/09/03 03:13:52;;;;;;;4.80;3.38;;;14.30;99.90;;;;;;4995747;28;20049;-76
2023/09/03 03:16:21;;;;;;;3.58;3.03;;;14.30;99.90;;;;;;4980421;28;20053;-75
2023/09/03 03:18:51;;;;;;;3.45;2.97;;;14.30;99.90;;;;;;5028478;28;20314;-79
2023/09/03 03:21:22;;;;;;;3.87;3.57;;;14.20;99.90;;;;;;4996666;28;20042;-79
2023/09/03 03:23:53;;;;;;;3.53;3.10;;;14.20;99.90;;;;;;5009178;28;20500;-79
2023/09/03 03:26:29;;;;;;;3.35;2.92;;;14.10;99.90;;;;;;5013233;28;20269;-79
2023/09/03 03:28:56;;;;;;;3.35;2.83;;;14.10;99.90;;;;;;4993310;28;20065;-79
2023/09/03 03:31:23;;;;;;;3.50;3.17;;;14.10;99.90;;;;;;4996288;28;20088;-79
2023/09/03 03:33:52;;;;;;;3.65;3.33;;;14.00;99.90;;;;;;4995927;28;20477;-80
2023/09/03 03:36:22;;;;;;;3.80;3.50;;;14.00;99.90;;;;;;5011628;28;20409;-79
2023/09/03 03:38:49;;;;;;;3.80;3.40;;;14.00;99.90;;;;;;5012370;28;20064;-79
2023/09/03 03:41:19;;;;;;;4.20;3.65;;;13.90;99.90;;;;;;4994986;28;20101;-75
2023/09/03 03:43:49;;;;;;;4.70;3.15;;;13.80;99.90;;;;;;4995719;28;20038;-79
2023/09/03 03:46:18;;;;;;;4.15;3.35;;;13.90;99.90;;;;;;4979655;28;20030;-79
2023/09/03 03:48:48;;;;;;;4.03;3.40;;;13.80;99.90;;;;;;5010640;28;20418;-80
2023/09/03 03:51:15;;;;;;;3.67;3.33;;;13.80;99.90;;;;;;4980392;28;20499;-79
2023/09/03 03:53:42;;;;;;;3.35;2.95;;;13.80;99.90;;;;;;4995523;28;20037;-79
2023/09/03 03:56:12;;;;;;;3.42;3.13;;;13.70;99.90;;;;;;5012081;28;20485;-79
2023/09/03 03:58:41;;;;;;;3.85;3.33;;;13.70;99.90;;;;;;4979135;28;20046;-80
2023/09/03 04:01:15;;;;;;;3.42;2.95;;;13.70;99.90;;;;;;4996036;28;20037;-79
2023/09/03 04:03:42;;;;;;;3.53;3.13;;;13.70;99.90;;;;;;5010565;28;20481;-77
2023/09/03 04:06:09;;;;;;;3.92;3.05;;;13.70;99.90;;;;;;5012042;28;20034;-78
2023/09/03 04:08:38;;;;;;;4.22;3.63;;;13.70;99.90;;;;;;5011830;28;20049;-76
2023/09/03 04:11:09;;;;;;;4.22;3.17;;;13.70;99.90;;;;;;4996510;28;20374;-79
2023/09/03 04:13:37;;;;;;;4.70;4.00;;;13.70;99.90;;;;;;4995074;28;20068;-80
2023/09/03 04:16:14;;;;;;;4.15;3.55;;;13.70;99.90;;;;;;4995274;28;20030;-79
2023/09/03 04:18:44;;;;;;;3.78;3.42;;;13.70;99.90;;;;;;5010401;28;20480;-81
2023/09/03 04:21:11;;;;;;;3.67;3.20;;;13.70;99.90;;;;;;4978693;28;20441;-80
2023/09/03 04:23:38;;;;;;;4.60;4.15;;;13.70;99.90;;;;;;4995353;28;20406;-80
2023/09/03 04:26:05;;;;;;;5.45;3.97;;;13.70;99.90;;;;;;4980236;28;20038;-79
2023/09/03 04:28:37;;;;;;;4.88;4.15;;;13.80;99.90;;;;;;4979464;28;20224;-79
2023/09/03 04:31:07;;;;;;;4.90;3.97;;;13.70;99.90;;;;;;5009576;28;20034;-77
2023/09/03 04:33:38;;;;;;;4.60;3.78;;;13.80;99.90;;;;;;4995144;28;20041;-79
2023/09/03 04:36:05;;;;;;;4.32;3.92;;;13.80;99.90;;;;;;4978403;28;20061;-79
2023/09/03 04:38:35;;;;;;;4.10;3.70;;;13.80;99.90;;;;;;4978416;28;20033;-79
2023/09/03 04:41:04;;;;;;;4.10;3.70;;;13.70;99.90;;;;;;4978502;28;20037;-81
2023/09/03 04:43:32;;;;;;;4.63;4.18;;;13.70;99.90;;;;;;4978296;28;20048;-80
2023/09/03 04:46:00;;;;;;;4.68;4.20;;;13.70;99.90;;;;;;5010632;28;20033;-78
2023/09/03 04:48:27;;;;;;;3.60;3.30;;;13.70;99.90;;;;;;5010604;28;20528;-80
2023/09/03 04:50:53;;;;;;;4.45;3.78;;;13.70;99.90;;;;;;4982600;28;20034;-80
2023/09/03 04:53:20;;;;;;;4.80;4.30;;;13.70;99.90;;;;;;5000194;28;20042;-78
2023/09/03 04:55:47;;;;;;;4.32;3.92;;;13.70;99.90;;;;;;5000317;28;20589;-79
2023/09/03 04:58:13;;;;;;;6.00;4.35;;;13.80;99.90;;;;;;5000448;28;20034;-80
2023/09/03 05:00:40;;;;;;;5.97;4.78;;;13.80;99.90;;;;;;4983645;28;20034;-81
2023/09/03 05:03:10;;;;;;;4.45;4.05;;;13.80;99.90;;;;;;5017449;28;20038;-81
2023/09/03 05:05:42;;;;;;;4.82;4.43;;;13.80;99.90;;;;;;5018272;28;20439;-76
2023/09/03 05:08:10;;;;;;;6.22;5.63;;;13.80;99.90;;;;;;5001443;28;20037;-83
2023/09/03 05:10:39;;;;;;;6.10;4.40;;;13.90;99.90;;;;;;4999949;28;20037;-75
2023/09/03 05:13:08;;;;;;;6.90;4.55;;;13.90;99.90;;;;;;5017061;28;20045;-80
2023/09/03 05:15:36;;;;;;;6.50;5.40;;;14.00;99.90;;;;;;5014085;28;20428;-78
2023/09/03 05:18:04;;;;;;;6.15;5.40;;;14.00;99.90;;;;;;5017666;28;20297;-78
2023/09/03 05:20:32;;;;;;;5.20;4.70;;;14.00;99.90;;;;;;5000230;28;20042;-79
2023/09/03 05:22:58;;;;;;;5.38;4.88;;;14.00;99.90;;;;;;5033963;28;20056;-76
2023/09/03 05:25:25;;;;;;;5.00;4.50;;;14.10;99.90;;;;;;5033333;28;20046;-77
2023/09/03 05:27:51;;;;;;;4.90;4.40;;;14.10;99.90;;;;;;4984804;28;20045;-79
2023/09/03 05:30:19;;;;;;;6.78;4.82;;;14.10;99.90;;;;;;5015990;28;20026;-78
2023/09/03 05:32:47;;;;;;;4.97;4.47;;;14.10;99.90;;;;;;4983717;28;20493;-78
2023/09/03 05:35:13;;;;;;;5.45;4.80;;;14.20;99.90;;;;;;5015665;28;20487;-78
2023/09/03 05:37:40;;;;;;;6.05;5.07;;;14.20;99.90;;;;;;5000870;28;20622;-78
2023/09/03 05:40:07;;;;;;;5.32;4.40;;;14.20;99.90;;;;;;4984105;28;20497;-77
2023/09/03 05:42:34;;;;;;;5.30;4.15;;;14.30;99.90;;;;;;5000870;28;20038;-77
2023/09/03 05:45:00;;;;;;;6.03;4.97;;;14.30;99.90;;;;;;5000860;28;20497;-78
2023/09/03 05:47:27;;;;;;;5.60;5.10;;;14.40;99.90;;;;;;5033815;28;20064;-76
2023/09/03 05:49:55;;;;;;;5.68;4.65;;;14.40;99.90;;;;;;5033803;28;20034;-78
2023/09/03 05:52:22;;;;;;;5.53;4.95;;;14.50;99.90;;;;;;4984730;28;20404;-78
2023/09/03 05:54:49;;;;;;;5.22;4.72;;;14.60;99.90;;;;;;5002800;28;20029;-78
2023/09/03 05:57:15;;;;;;;5.43;4.82;;;14.60;99.90;;;;;;5033360;28;20040;-78
2023/09/03 05:59:41;;;;;;;4.78;4.28;;;14.70;99.90;;;;;;5016834;28;20048;-78
2023/09/03 06:02:09;;;;;;;5.80;4.65;;;14.80;99.90;;;;;;4999331;28;20029;-78
2023/09/03 06:04:36;;;;;;;6.00;5.10;;;14.90;99.90;;;;;;5014499;28;20045;-75
2023/09/03 06:07:04;;;;;;;4.55;4.15;;;15.00;99.90;;;;;;4997783;28;20038;-76
2023/09/03 06:09:30;;;;;;;4.93;4.53;;;15.00;99.90;;;;;;4996496;28;20025;-79
2023/09/03 06:11:56;;;;;;;5.20;4.68;;;15.20;99.90;;;;;;5013021;28;20033;-79
2023/09/03 06:14:23;;;;;;;5.40;4.65;;;15.30;99.90;;;;;;4981908;28;20054;-78
2023/09/03 06:16:50;;;;;;;5.25;4.75;;;15.30;99.90;;;;;;5012584;28;20038;-78
2023/09/03 06:19:16;;;;;;;5.57;4.80;;;15.40;99.90;;;;;;4997219;28;20049;-78
2023/09/03 06:21:43;;;;;;;5.47;4.97;;;15.50;99.90;;;;;;4998992;28;20041;-79
2023/09/03 06:24:09;;;;;;;6.13;5.53;;;15.60;99.90;;;;;;4998654;28;20400;-74
2023/09/03 06:26:35;;;;;;;5.43;4.93;;;15.60;99.90;;;;;;4997815;28;20107;-74
2023/09/03 06:29:02;;;;;;;6.05;4.65;;;15.80;99.90;;;;;;4980777;28;20048;-75
2023/09/03 06:31:28;;;;;;;5.00;4.50;;;15.90;99.90;;;;;;4980865;28;20049;-74
2023/09/03 06:33:55;;;;;;;5.88;5.25;;;16.00;99.90;;;;;;5012558;28;20140;-75
2023/09/03 06:36:25;;;;;;;5.28;4.78;;;16.10;99.90;;;;;;5014291;28;20045;-76
2023/09/03 06:38:51;;;;;;;4.22;3.60;;;16.30;99.90;;;;;;5012809;28;20049;-76
2023/09/03 06:41:18;;;;;;;5.32;4.05;;;16.40;99.90;;;;;;4996381;28;20520;-75
2023/09/03 06:43:44;;;;;;;4.15;3.40;;;16.50;99.90;;;;;;4996046;28;20038;-75
2023/09/03 06:46:11;;;;;;;4.53;3.42;;;16.60;99.90;;;;;;5030752;28;20026;-79
2023/09/03 06:48:37;;;;;;;4.85;4.10;;;16.70;99.90;;;;;;4996933;28;20053;-77
2023/09/03 06:51:04;;;;;;;5.22;4.65;;;16.80;99.90;;;;;;4995433;28;20044;-76
2023/09/03 06:53:30;;;;;;;6.68;5.78;;;16.90;99.90;;;;;;5028810;28;20042;-79
2023/09/03 06:55:57;;;;;;;5.18;4.25;;;16.90;99.90;;;;;;4997358;28;20042;-78
2023/09/03 06:58:24;;;;;;;4.72;3.58;;;16.90;99.90;;;;;;4997394;28;20033;-78
2023/09/03 07:00:50;;;;;;;3.85;2.63;;;17.10;99.90;;;;;;4995863;28;20428;-75
2023/09/03 07:03:17;;;;;;;2.95;2.63;;;17.20;99.90;;;;;;5028761;28;20053;-78
2023/09/03 07:05:43;;;;;;;3.25;2.55;;;17.30;99.90;;;;;;4996644;28;20416;-79
2023/09/03 07:08:10;;;;;;;4.80;3.90;;;17.40;99.90;;;;;;4994634;28;20036;-78
2023/09/03 07:10:39;;;;;;;5.68;4.82;;;17.60;99.90;;;;;;5011610;28;20405;-77
2023/09/03 07:13:05;;;;;;;7.70;5.28;;;17.70;99.90;;;;;;4995210;28;20042;-81
2023/09/03 07:15:35;;;;;;;5.80;5.20;;;17.70;99.90;;;;;;4979817;28;20517;-76
2023/09/03 07:18:03;;;;;;;5.55;3.78;;;17.80;99.90;;;;;;4996332;28;20021;-77
2023/09/03 07:20:29;;;;;;;5.32;4.57;;;17.90;99.90;;;;;;5010467;28;20049;-75
2023/09/03 07:22:56;;;;;;;5.82;4.60;;;18.00;99.90;;;;;;4996312;28;23721;-77
2023/09/03 07:25:22;;;;;;;5.90;5.35;;;18.10;99.90;;;;;;4995532;28;20038;-77
2023/09/03 07:27:49;;;;;;;5.90;5.30;;;18.10;99.90;;;;;;5028741;28;20405;-78
2023/09/03 07:30:15;;;;;;;8.63;6.85;;;18.10;99.90;;;;;;5010531;28;20038;-77
2023/09/03 07:32:41;;;;;;;5.90;4.60;;;18.00;99.90;;;;;;5011865;28;20052;-76
2023/09/03 07:35:08;;;;;;;7.22;4.80;;;18.10;99.90;;;;;;4979939;28;20042;-76
2023/09/03 07:37:35;;;;;;;6.30;4.68;;;18.10;99.90;;;;;;5012799;28;20044;-77
2023/09/03 07:40:03;;;;;;;4.97;3.17;;;18.20;99.90;;;;;;4994652;28;20034;-77
2023/09/03 07:42:29;;;;;;;3.60;3.22;;;18.30;99.90;;;;;;5011696;28;20053;-78
2023/09/03 07:44:56;;;;;;;5.32;3.08;;;18.40;99.90;;;;;;4995858;28;20053;-76
2023/09/03 07:47:23;;;;;;;4.15;3.75;;;18.50;99.90;;;;;;5011719;28;20041;-77
2023/09/03 07:49:49;;;;;;;3.85;2.75;;;18.60;99.90;;;;;;5009821;28;20037;-76
2023/09/03 07:52:17;;;;;;;5.07;2.88;;;18.70;99.90;;;;;;5012247;28;22349;-76
2023/09/03 07:54:44;;;;;;;4.18;2.80;;;18.80;99.90;;;;;;4996831;28;20493;-77
2023/09/03 07:57:10;;;;;;;4.60;3.55;;;18.90;99.90;;;;;;4980727;28;20037;-77
2023/09/03 07:59:38;;;;;;;3.72;2.60;;;19.10;99.90;;;;;;4994121;28;20798;-75
2023/09/03 08:02:05;;;;;;;3.85;3.30;;;19.20;99.90;;;;;;4997525;28;20041;-76
2023/09/03 08:04:31;;;;;;;3.85;2.80;;;19.20;99.90;;;;;;4995454;28;20029;-77
2023/09/03 08:06:58;;;;;;;2.75;2.20;;;19.30;99.90;;;;;;5011310;28;20053;-76
2023/09/03 08:09:25;;;;;;;4.25;3.10;;;19.40;99.90;;;;;;4995337;28;20037;-77
2023/09/03 08:11:52;;;;;;;3.78;2.03;;;19.50;99.90;;;;;;4994713;28;20404;-76
2023/09/03 08:14:18;;;;;;;4.82;2.00;;;19.60;99.90;;;;;;5027581;28;20045;-76
2023/09/03 08:16:44;;;;;;;4.28;1.60;;;19.70;99.90;;;;;;5012260;28;20042;-77
2023/09/03 08:19:11;;;;;;;3.97;1.60;;;19.70;99.90;;;;;;4994854;28;20038;-77
2023/09/03 08:21:37;;;;;;;3.28;2.17;;;19.80;99.90;;;;;;4996482;28;20041;-77
2023/09/03 08:24:04;;;;;;;2.22;1.83;;;19.80;99.90;;;;;;4978460;28;20061;-78
2023/09/03 08:26:30;;;;;;;2.55;1.40;;;19.90;99.90;;;;;;5027438;28;20366;-77
2023/09/03 08:28:57;;;;;;;2.22;1.55;;;20.00;99.90;;;;;;4978509;28;20049;-77
2023/09/03 08:31:23;;;;;;;3.88;1.27;;;20.20;99.90;;;;;;5011470;28;20033;-79
2023/09/03 08:33:53;;;;;;;3.65;2.30;;;20.20;99.90;;;;;;4979917;28;20053;-79
2023/09/03 08:36:22;;;;;;;3.83;2.08;;;20.40;99.90;;;;;;5011873;28;20559;-79
2023/09/03 08:38:48;;;;;;;1.60;1.10;;;20.50;99.90;;;;;;5010965;28;20389;-77
2023/09/03 08:41:15;;;;;;;1.75;1.10;;;20.60;99.90;;;;;;4977398;28;20507;-78
2023/09/03 08:43:45;;;;;;;2.42;1.20;;;20.70;99.90;;;;;;4994286;28;20044;-78
2023/09/03 08:46:15;;;;;;;3.60;2.13;;;20.80;99.90;;;;;;4994349;28;20053;-76
2023/09/03 08:48:43;;;;;;;2.30;1.77;;;20.90;99.90;;;;;;5007882;28;20037;-77
2023/09/03 08:51:10;;;;;;;2.88;2.10;;;20.90;99.90;;;;;;4994168;28;20037;-79
2023/09/03 08:53:38;;;;;;;3.80;2.50;;;21.00;99.90;;;;;;4994273;28;20033;-78
2023/09/03 08:56:04;;;;;;;5.00;3.97;;;21.10;99.90;;;;;;4978458;28;20053;-79
2023/09/03 08:58:32;;;;;;;1.90;1.50;;;21.20;99.90;;;;;;4994276;28;20489;-80
2023/09/03 09:00:58;;;;;;;3.45;2.05;;;21.30;99.90;;;;;;4995642;28;20038;-75
2023/09/03 09:03:28;;;;;;;3.15;2.08;;;21.40;99.90;;;;;;4992826;28;20056;-78
2023/09/03 09:05:56;;;;;;;4.80;1.92;;;21.50;99.90;;;;;;4995518;28;20041;-74
2023/09/03 09:08:24;;;;;;;5.07;4.07;;;21.50;99.90;;;;;;4993381;28;20477;-79
2023/09/03 09:10:53;;;;;;;3.25;2.95;;;21.70;99.90;;;;;;5009755;28;20056;-77
2023/09/03 09:13:23;;;;;;;2.90;2.15;;;21.80;99.90;;;;;;5009005;28;20033;-78
2023/09/03 09:15:49;;;;;;;3.75;2.60;;;22.00;99.90;;;;;;5027929;28;20037;-77
2023/09/03 09:18:16;;;;;;;3.22;2.38;;;22.20;99.90;;;;;;5009252;28;20406;-79
2023/09/03 09:20:43;;;;;;;2.28;1.58;;;22.20;99.90;;;;;;4977041;28;20297;-76
2023/09/03 09:23:10;;;;;;;3.25;1.40;;;22.30;99.90;;;;;;5008922;28;20042;-76
2023/09/03 09:25:36;;;;;;;1.92;1.10;;;22.30;99.90;;;;;;4995349;28;20038;-78
2023/09/03 09:28:13;;;;;;;3.22;1.92;;;22.20;99.90;;;;;;4994252;28;20026;-76
2023/09/03 09:30:58;;;;;;;2.53;1.60;;;22.30;99.90;;;;;;4994555;28;20038;-77
2023/09/03 09:33:26;;;;;;;4.07;3.50;;;22.30;99.90;;;;;;5024286;28;21486;-75
2023/09/03 09:35:53;;;;;;;3.30;2.20;;;22.30;99.90;;;;;;4965852;28;20042;-79
2023/09/03 09:38:31;;;;;;;3.28;1.55;;;22.30;99.90;;;;;;5029294;28;20045;-79
2023/09/03 09:41:20;;;;;;;6.50;4.57;;;22.40;99.90;;;;;;5028804;28;20374;-79
2023/09/03 09:43:46;;;;;;;3.10;1.90;;;22.60;99.90;;;;;;4997478;28;20057;-78
2023/09/03 09:46:33;;;;;;;1.85;1.10;;;22.70;99.90;;;;;;4998744;28;20560;-79
2023/09/03 09:49:01;;;;;;;1.67;0.82;;;22.80;99.90;;;;;;5013281;28;20500;-79
2023/09/03 09:51:29;;;;;;;2.10;1.00;;;22.90;99.90;;;;;;4980890;28;20046;-78
2023/09/03 09:54:00;;;;;;;1.17;0.80;;;23.00;99.90;;;;;;5013089;28;20710;-80
2023/09/03 09:56:35;;;;;;;2.50;1.10;;;23.10;99.90;;;;;;5013037;28;20381;-78
2023/09/03 09:59:02;;;;;;;1.35;0.73;;;23.20;99.90;;;;;;4980052;28;20044;-77
2023/09/03 10:01:43;;;;;;;2.10;1.20;;;23.40;99.90;;;;;;5013301;28;20042;-81
2023/09/03 10:04:10;;;;;;;1.95;1.45;;;23.60;99.90;;;;;;4997075;28;20034;-81
2023/09/03 10:06:38;;;;;;;2.85;1.38;;;23.70;99.90;;;;;;4997590;28;20049;-78
2023/09/03 10:09:07;;;;;;;2.15;1.48;;;23.80;99.90;;;;;;4995012;28;20045;-81
2023/09/03 10:11:34;;;;;;;3.25;1.95;;;23.90;99.90;;;;;;4999037;28;20405;-86
2023/09/03 10:14:00;;;;;;;1.77;1.05;;;24.00;99.90;;;;;;4999202;28;20034;-80
2023/09/03 10:16:28;;;;;;;1.60;1.00;;;24.00;99.90;;;;;;5030673;28;20054;-81
2023/09/03 10:18:59;;;;;;;1.48;0.80;;;24.10;99.90;;;;;;4997429;28;20038;-82
2023/09/03 10:21:27;;;;;;;1.40;0.60;;;24.00;99.90;;;;;;4996966;28;20042;-84
2023/09/03 10:23:55;;;;;;;1.50;0.75;;;24.10;99.90;;;;;;5026981;28;20039;-83
2023/09/03 10:26:26;;;;;;;1.45;0.70;;;24.20;99.90;;;;;;5013931;28;20057;-82
2023/09/03 10:29:02;;;;;;;2.55;0.90;;;24.40;99.90;;;;;;5011480;28;20030;-83
2023/09/03 10:31:30;;;;;;;1.80;0.70;;;24.60;99.90;;;;;;5010840;28;20030;-83
2023/09/03 10:33:57;;;;;;;2.17;1.00;;;24.90;99.90;;;;;;4980804;28;20026;-84
2023/09/03 10:36:24;;;;;;;1.35;0.70;;;25.20;99.90;;;;;;4997091;28;20341;-83
2023/09/03 10:38:51;;;;;;;1.10;0.50;;;25.20;99.90;;;;;;4979813;28;20042;-78
2023/09/03 10:41:22;;;;;;;1.30;0.65;;;25.40;99.90;;;;;;5027017;28;20026;-82
2023/09/03 10:43:53;;;;;;;1.60;0.93;;;25.50;99.90;;;;;;5011936;28;20037;-84
2023/09/03 10:46:22;;;;;;;1.80;0.80;;;25.60;99.90;;;;;;4997136;28;20292;-85
2023/09/03 10:48:56;;;;;;;2.53;0.50;;;25.60;99.90;;;;;;4996653;28;21338;-77
2023/09/03 10:51:41;;;;;;;1.45;0.50;;;25.60;99.90;;;;;;4995843;28;20038;-85
2023/09/03 10:54:15;;;;;;;1.05;0.40;;;25.80;99.90;;;;;;4995441;28;20042;-81
2023/09/03 10:57:04;;;;;;;2.65;1.92;;;26.20;99.90;;;;;;5013136;28;20389;-83
2023/09/03 10:59:59;;;;;;;4.07;3.67;;;26.60;99.90;;;;;;5011866;28;20744;-80
2023/09/03 11:02:27;;;;;;;1.15;0.65;;;27.00;99.90;;;;;;5028053;28;20277;-81
2023/09/03 11:05:14;;;;;;;1.25;0.50;;;27.10;99.90;;;;;;4981599;28;20049;-83
2023/09/03 11:07:45;;;;;;;1.30;0.50;;;27.10;99.90;;;;;;4996401;28;20038;-82
2023/09/03 11:10:25;;;;;;;0.68;0.40;;;27.20;99.90;;;;;;4997088;28;20397;-80
2023/09/03 11:12:52;;;;;;;0.75;0.40;;;27.40;99.90;;;;;;5012011;28;20542;-82
2023/09/03 11:15:19;;;;;;;0.70;0.40;;;27.50;99.90;;;;;;5028434;28;20493;-82
2023/09/03 11:17:56;;;;;;;0.55;0.30;;;27.70;99.90;;;;;;5029255;28;20026;-84
2023/09/03 11:20:31;;;;;;;0.80;0.30;;;27.80;99.90;;;;;;5010776;28;20033;-84
2023/09/03 11:22:58;;;;;;;0.52;0.30;;;28.10;99.80;;;;;;4980136;28;20480;-85
2023/09/03 11:25:38;;;;;;;0.90;0.40;;;28.30;99.60;;;;;;4995006;28;20017;-84
2023/09/03 11:28:12;;;;;;;2.58;0.68;;;28.60;98.90;;;;;;4996767;28;20056;-85
2023/09/03 11:30:57;;;;;;;1.50;0.60;;;28.70;97.50;;;;;;5014607;28;20045;-86
2023/09/03 11:33:28;;;;;;;0.88;0.40;;;28.80;97.40;;;;;;5000521;28;20696;-91
2023/09/03 11:35:54;;;;;;;1.33;0.60;;;28.90;96.70;;;;;;5029938;28;20776;-93
2023/09/03 11:38:27;;;;;;;3.70;1.58;;;29.10;96.80;;;;;;5013231;28;20044;-90
2023/09/03 11:40:55;;;;;;;1.70;0.60;;;29.30;96.70;;;;;;4997938;28;20046;-90
2023/09/03 11:43:23;;;;;;;3.05;0.75;;;29.50;96.50;;;;;;4999633;28;20701;-90
2023/09/03 11:45:49;;;;;;;1.00;0.40;;;29.60;95.70;;;;;;5032390;28;20030;-91
2023/09/03 11:48:23;;;;;;;2.15;0.40;;;29.60;94.90;;;;;;4998390;28;20044;-90
2023/09/03 11:50:50;;;;;;;1.05;0.60;;;29.80;94.80;;;;;;4997705;28;20042;-90
2023/09/03 11:53:17;;;;;;;0.98;0.38;;;30.30;94.40;;;;;;4997312;28;20034;-91
2023/09/03 11:55:48;;;;;;;1.30;0.35;;;30.60;92.90;;;;;;4999289;28;20037;-87
2023/09/03 11:58:18;;;;;;;0.68;0.38;;;30.70;92.30;;;;;;5029059;28;20045;-89
2023/09/03 12:00:46;;;;;;;0.88;0.30;;;30.80;91.70;;;;;;4981259;28;20026;-87
2023/09/03 12:03:13;;;;;;;0.82;0.30;;;30.90;91.20;;;;;;4980255;28;20037;-87
2023/09/03 12:05:39;;;;;;;0.80;0.40;;;31.20;90.60;;;;;;5014149;28;20477;-90
2023/09/03 12:08:06;;;;;;;1.23;0.50;;;31.40;89.10;;;;;;4997305;28;20030;-90
2023/09/03 12:10:33;;;;;;;0.80;0.50;;;31.30;87.80;;;;;;4979168;28;20042;-74
2023/09/03 12:13:01;;;;;;;1.10;0.60;;;31.00;87.20;;;;;;4994437;28;20041;-76
2023/09/03 12:15:30;;;;;;;1.05;0.57;;;30.70;87.50;;;;;;4994902;28;20033;-75
2023/09/03 12:18:10;;;;;;;2.78;1.00;;;30.40;86.80;;;;;;5011881;28;20045;-75
2023/09/03 12:20:42;;;;;;;2.78;1.58;;;30.20;87.00;;;;;;4977164;28;20037;-77
2023/09/03 12:23:16;;;;;;;1.15;0.57;;;30.00;88.70;;;;;;4980992;28;20034;-75
2023/09/03 12:25:43;;;;;;;1.02;0.45;;;29.90;89.00;;;;;;4993801;28;20034;-74
2023/09/03 12:28:11;;;;;;;0.75;0.30;;;29.80;87.90;;;;;;4995097;28;20472;-76
2023/09/03 12:30:58;;;;;;;9.02;5.53;;;29.50;88.20;;;;;;4978389;28;20066;-76
2023/09/03 12:33:33;;;;;;;4.68;3.75;;;29.20;88.80;;;;;;4977938;28;20038;-76
2023/09/03 12:36:11;;;;;;;1.73;1.02;;;28.90;88.90;;;;;;5027147;28;20038;-78
2023/09/03 12:39:00;;;;;;;1.80;0.70;;;28.80;90.10;;;;;;4994679;28;20034;-74
2023/09/03 12:41:30;;;;;;;0.60;0.40;;;29.00;90.00;;;;;;4995849;28;20026;-79
2023/09/03 12:44:10;;;;;;;2.03;0.40;;;29.00;90.10;;;;;;5009640;28;20046;-76
2023/09/03 12:46:36;;;;;;;1.10;0.50;;;29.10;89.60;;;;;;4996501;28;20060;-77
2023/09/03 12:49:05;;;;;;;0.60;0.38;;;29.10;89.60;;;;;;5010186;28;20050;-80
2023/09/03 12:51:37;;;;;;;1.63;0.40;;;29.00;89.30;;;;;;5011431;28;20033;-76
2023/09/03 12:54:04;;;;;;;1.10;0.40;;;29.00;89.10;;;;;;4994763;28;20880;-76
2023/09/03 12:56:31;;;;;;;0.75;0.38;;;28.90;88.50;;;;;;4993403;28;20042;-74